Time;durP1;ratioP1;P1;durP2;ratioP2;P2;SDS_P1;SDS_P2;PMS_P1;PMS_P2;Temp;Humidity;BMP_temperature;BMP_pressure;BME280_temperature;BME280_humidity;BME280_pressure;Samples;Min_cycle;Max_cycle;Signal;HPM_P1;HPM_P2
2023/01/16 00:00:05;;;;;;;12.80;8.43;;;;;;;;;;5023334;28;20496;-77
2023/01/16 00:02:31;;;;;;;13.00;7.93;;;;;;;;;;5025995;28;20046;-77
2023/01/16 00:04:57;;;;;;;11.35;7.97;;;;;;;;;;5020615;28;20389;-77
2023/01/16 00:07:23;;;;;;;11.65;7.43;;;;;;;;;;5017123;28;20129;-77
2023/01/16 00:09:49;;;;;;;11.05;7.60;;;;;;;;;;5016754;28;20535;-77
2023/01/16 00:12:15;;;;;;;10.55;7.85;;;;;;;;;;5017930;28;20493;-77
2023/01/16 00:14:41;;;;;;;10.77;7.47;;;;;;;;;;5016742;28;20455;-77
2023/01/16 00:17:07;;;;;;;11.63;7.63;;;;;;;;;;5026129;28;20052;-77
2023/01/16 00:19:33;;;;;;;8.32;6.68;;;;;;;;;;5035757;28;20077;-77
2023/01/16 00:21:59;;;;;;;9.15;6.40;;;;;;;;;;5025880;28;20041;-77
2023/01/16 00:24:25;;;;;;;8.02;5.93;;;;;;;;;;5032420;28;20048;-77
2023/01/16 00:26:52;;;;;;;8.77;5.57;;;;;;;;;;5034960;28;20077;-77
2023/01/16 00:29:18;;;;;;;8.27;5.45;;;;;;;;;;5036331;28;20049;-77
2023/01/16 00:31:44;;;;;;;8.73;5.50;;;;;;;;;;5027003;28;20037;-77
2023/01/16 00:34:10;;;;;;;8.38;5.18;;;;;;;;;;5022549;28;20119;-77
2023/01/16 00:36:38;;;;;;;8.88;5.38;;;;;;;;;;5016758;28;20476;-77
2023/01/16 00:39:04;;;;;;;6.57;4.78;;;;;;;;;;5018790;28;20108;-77
2023/01/16 00:41:30;;;;;;;7.05;4.68;;;;;;;;;;5022527;28;20057;-77
2023/01/16 00:43:58;;;;;;;8.00;4.63;;;;;;;;;;5022837;28;20034;-77
2023/01/16 00:46:25;;;;;;;6.53;4.63;;;;;;;;;;5033502;28;20060;-78
2023/01/16 00:48:51;;;;;;;6.85;4.72;;;;;;;;;;5027266;28;20061;-77
2023/01/16 00:51:17;;;;;;;7.60;4.93;;;;;;;;;;5031971;28;20052;-77
2023/01/16 00:53:43;;;;;;;8.52;5.32;;;;;;;;;;5035919;28;20045;-77
2023/01/16 00:56:09;;;;;;;11.82;5.65;;;;;;;;;;5035674;28;20054;-77
2023/01/16 00:58:35;;;;;;;7.50;4.60;;;;;;;;;;5036102;28;20045;-77
2023/01/16 01:01:01;;;;;;;7.38;5.25;;;;;;;;;;5028276;28;20041;-76
2023/01/16 01:03:28;;;;;;;7.75;5.07;;;;;;;;;;5022938;28;20043;-77
2023/01/16 01:05:54;;;;;;;8.13;4.80;;;;;;;;;;5018120;28;20441;-77
2023/01/16 01:08:20;;;;;;;9.60;5.38;;;;;;;;;;5015804;28;20128;-77
2023/01/16 01:10:46;;;;;;;7.90;5.22;;;;;;;;;;5015922;28;20038;-76
2023/01/16 01:13:12;;;;;;;9.15;5.30;;;;;;;;;;5034604;28;20041;-77
2023/01/16 01:15:38;;;;;;;8.70;5.90;;;;;;;;;;5028867;28;20444;-77
2023/01/16 01:18:05;;;;;;;8.02;5.57;;;;;;;;;;5015662;28;20054;-77
2023/01/16 01:20:31;;;;;;;9.98;5.78;;;;;;;;;;5014526;28;20519;-76
2023/01/16 01:22:57;;;;;;;8.55;5.97;;;;;;;;;;5030917;28;20523;-77
2023/01/16 01:25:23;;;;;;;9.95;6.00;;;;;;;;;;5015791;28;20038;-77
2023/01/16 01:27:50;;;;;;;11.43;6.40;;;;;;;;;;5015612;28;20046;-77
2023/01/16 01:30:16;;;;;;;11.80;6.45;;;;;;;;;;5015795;28;20041;-77
2023/01/16 01:32:42;;;;;;;9.48;6.50;;;;;;;;;;5019532;28;20042;-77
2023/01/16 01:35:08;;;;;;;9.57;6.25;;;;;;;;;;5015536;28;20416;-77
2023/01/16 01:37:35;;;;;;;10.20;7.00;;;;;;;;;;5014481;28;20038;-77
2023/01/16 01:40:02;;;;;;;11.48;6.35;;;;;;;;;;5015046;28;20046;-77
2023/01/16 01:42:43;;;;;;;12.00;7.03;;;;;;;;;;5014978;28;20137;-77
2023/01/16 01:45:25;;;;;;;11.18;6.63;;;;;;;;;;5015387;28;20041;-77
2023/01/16 01:48:04;;;;;;;12.35;6.60;;;;;;;;;;5014523;28;20046;-77
2023/01/16 01:50:42;;;;;;;11.13;7.00;;;;;;;;;;5034294;28;20041;-77
2023/01/16 01:53:26;;;;;;;13.13;7.32;;;;;;;;;;5034867;28;20499;-77
2023/01/16 01:55:53;;;;;;;13.15;6.88;;;;;;;;;;5034777;28;20045;-77
2023/01/16 01:58:22;;;;;;;13.45;7.28;;;;;;;;;;5019980;28;20042;-77
2023/01/16 02:00:50;;;;;;;11.65;7.38;;;;;;;;;;5023678;28;20042;-77
2023/01/16 02:03:25;;;;;;;13.75;7.15;;;;;;;;;;5023650;28;20476;-77
2023/01/16 02:05:53;;;;;;;12.10;7.32;;;;;;;;;;5019362;28;20066;-77
2023/01/16 02:08:20;;;;;;;11.63;7.18;;;;;;;;;;5014891;28;20124;-77
2023/01/16 02:10:52;;;;;;;13.52;6.75;;;;;;;;;;5015129;28;20125;-77
2023/01/16 02:13:18;;;;;;;11.70;6.82;;;;;;;;;;5015357;28;20069;-77
2023/01/16 02:21:33;;;;;;;10.50;6.68;;;;;;;;;;5026417;28;20057;-77
2023/01/16 02:24:27;;;;;;;8.90;6.05;;;;;;;;;;5013380;28;20463;-76
2023/01/16 02:27:08;;;;;;;13.15;7.00;;;;;;;;;;5013286;28;20129;-77
2023/01/16 02:29:37;;;;;;;9.70;6.63;;;;;;;;;;5014893;28;20117;-77
2023/01/16 02:32:26;;;;;;;9.93;6.22;;;;;;;;;;5019348;28;20451;-77
2023/01/16 02:35:07;;;;;;;10.55;6.22;;;;;;;;;;5033217;28;20047;-76
2023/01/16 02:37:55;;;;;;;11.32;6.40;;;;;;;;;;5029162;28;20042;-77
2023/01/16 02:40:21;;;;;;;12.23;6.47;;;;;;;;;;5014155;28;20052;-77
2023/01/16 02:43:14;;;;;;;9.65;6.50;;;;;;;;;;5013910;28;20038;-76
2023/01/16 02:45:43;;;;;;;10.95;6.03;;;;;;;;;;4991125;28;20141;-77
2023/01/16 02:48:28;;;;;;;10.05;6.18;;;;;;;;;;5014823;28;20112;-77
2023/01/16 02:51:06;;;;;;;11.75;6.63;;;;;;;;;;5020703;28;20042;-77
2023/01/16 02:53:42;;;;;;;12.43;6.38;;;;;;;;;;5014176;28;20063;-77
2023/01/16 02:56:12;;;;;;;12.15;6.30;;;;;;;;;;5021030;28;20380;-77
2023/01/16 02:58:39;;;;;;;10.52;5.40;;;;;;;;;;5034172;28;20045;-77
2023/01/16 03:01:06;;;;;;;10.05;5.53;;;;;;;;;;5032786;28;20049;-77
2023/01/16 03:03:43;;;;;;;11.77;6.05;;;;;;;;;;5014675;28;20046;-76
2023/01/16 03:06:11;;;;;;;9.65;5.63;;;;;;;;;;5014420;28;20095;-77
2023/01/16 03:08:49;;;;;;;8.43;5.43;;;;;;;;;;5013703;28;20571;-77
2023/01/16 03:11:22;;;;;;;11.38;5.68;;;;;;;;;;5027712;28;20056;-77
2023/01/16 03:13:54;;;;;;;8.75;5.55;;;;;;;;;;5033377;28;20472;-77
2023/01/16 03:16:30;;;;;;;9.98;5.80;;;;;;;;;;5024182;28;20233;-77
2023/01/16 03:19:06;;;;;;;9.02;5.55;;;;;;;;;;5013357;28;20058;-77
2023/01/16 03:21:50;;;;;;;10.40;5.40;;;;;;;;;;5025370;28;20053;-77
2023/01/16 03:24:19;;;;;;;8.68;5.78;;;;;;;;;;5013611;28;20052;-77
2023/01/16 03:26:55;;;;;;;18.50;6.18;;;;;;;;;;5013756;28;20123;-76
2023/01/16 03:29:31;;;;;;;9.30;5.40;;;;;;;;;;5012358;28;20408;-76
2023/01/16 03:32:01;;;;;;;11.10;6.00;;;;;;;;;;5029300;28;20053;-76
2023/01/16 03:34:39;;;;;;;8.55;5.60;;;;;;;;;;5030101;28;20052;-76
2023/01/16 03:37:20;;;;;;;10.52;6.00;;;;;;;;;;5029445;28;20045;-77
2023/01/16 03:39:48;;;;;;;10.82;6.03;;;;;;;;;;5014148;28;20093;-77
2023/01/16 03:42:25;;;;;;;10.70;6.25;;;;;;;;;;5014010;28;20125;-77
2023/01/16 03:44:53;;;;;;;12.27;6.53;;;;;;;;;;5013461;28;20050;-77
2023/01/16 03:47:23;;;;;;;14.02;6.60;;;;;;;;;;5027084;28;20042;-77
2023/01/16 03:49:52;;;;;;;13.70;7.30;;;;;;;;;;5027169;28;20069;-77
2023/01/16 03:52:20;;;;;;;12.35;6.65;;;;;;;;;;5016481;28;20046;-77
2023/01/16 03:54:46;;;;;;;12.38;7.05;;;;;;;;;;5013323;28;20552;-76
2023/01/16 03:57:32;;;;;;;12.77;7.55;;;;;;;;;;5014030;28;20038;-77
2023/01/16 04:00:00;;;;;;;12.82;7.85;;;;;;;;;;5013257;28;20046;-77
2023/01/16 04:02:38;;;;;;;12.73;8.35;;;;;;;;;;5037425;28;20120;-77
2023/01/16 04:05:25;;;;;;;14.65;7.85;;;;;;;;;;5030470;28;20124;-77
2023/01/16 04:08:02;;;;;;;14.82;8.13;;;;;;;;;;5028275;28;20088;-77
2023/01/16 04:10:31;;;;;;;13.23;7.90;;;;;;;;;;5016307;28;20042;-77
2023/01/16 04:13:13;;;;;;;14.27;8.30;;;;;;;;;;5017109;28;20045;-77
2023/01/16 04:15:40;;;;;;;12.60;8.25;;;;;;;;;;5016994;28;20132;-77
2023/01/16 04:18:06;;;;;;;13.07;8.38;;;;;;;;;;5029890;28;20046;-77
2023/01/16 04:20:33;;;;;;;16.35;8.90;;;;;;;;;;5033020;28;20116;-77
2023/01/16 04:22:59;;;;;;;12.70;7.65;;;;;;;;;;5017413;28;20053;-77
2023/01/16 04:25:25;;;;;;;11.85;7.88;;;;;;;;;;5033455;28;20041;-77
2023/01/16 04:27:52;;;;;;;12.60;8.40;;;;;;;;;;5036325;28;20038;-77
2023/01/16 04:30:18;;;;;;;15.95;8.90;;;;;;;;;;5036711;28;20129;-77
2023/01/16 04:32:44;;;;;;;12.30;8.50;;;;;;;;;;5034576;28;20060;-77
2023/01/16 04:35:10;;;;;;;13.18;8.32;;;;;;;;;;5019583;28;20076;-77
2023/01/16 04:37:36;;;;;;;15.35;8.70;;;;;;;;;;5015415;28;20046;-77
2023/01/16 04:40:02;;;;;;;12.95;8.05;;;;;;;;;;5017050;28;20124;-77
2023/01/16 04:42:28;;;;;;;13.50;8.43;;;;;;;;;;5016275;28;20532;-77
2023/01/16 04:44:54;;;;;;;14.63;8.73;;;;;;;;;;5024729;28;20069;-77
2023/01/16 04:47:20;;;;;;;15.45;8.52;;;;;;;;;;5016275;28;20405;-77
2023/01/16 04:49:46;;;;;;;12.73;8.25;;;;;;;;;;5019123;28;20096;-77
2023/01/16 04:52:13;;;;;;;13.35;8.18;;;;;;;;;;5019481;28;20046;-77
2023/01/16 04:54:39;;;;;;;12.07;8.43;;;;;;;;;;5036177;28;20041;-77
2023/01/16 04:57:05;;;;;;;14.25;7.75;;;;;;;;;;5035969;28;20103;-77
2023/01/16 04:59:31;;;;;;;13.25;8.20;;;;;;;;;;5036008;28;20041;-77
2023/01/16 05:01:58;;;;;;;14.35;8.88;;;;;;;;;;5035134;28;20073;-77
2023/01/16 05:04:24;;;;;;;11.90;8.05;;;;;;;;;;5020570;28;20562;-77
2023/01/16 05:06:50;;;;;;;17.55;9.15;;;;;;;;;;5021635;28;20502;-77
2023/01/16 05:09:16;;;;;;;12.13;8.20;;;;;;;;;;5015718;28;20420;-77
2023/01/16 05:11:42;;;;;;;14.13;7.93;;;;;;;;;;5015464;28;20109;-78
2023/01/16 05:14:10;;;;;;;13.65;9.25;;;;;;;;;;5015716;28;20073;-77
2023/01/16 05:16:37;;;;;;;13.38;8.75;;;;;;;;;;5015400;28;20042;-77
2023/01/16 05:19:03;;;;;;;17.38;9.18;;;;;;;;;;5016145;28;20042;-77
2023/01/16 05:21:29;;;;;;;17.08;9.10;;;;;;;;;;5019193;28;20053;-77
2023/01/16 05:23:55;;;;;;;16.67;9.32;;;;;;;;;;5015716;28;20088;-77
2023/01/16 05:26:21;;;;;;;16.52;9.38;;;;;;;;;;5015718;28;20088;-77
2023/01/16 05:28:47;;;;;;;18.05;10.07;;;;;;;;;;5018932;28;20447;-77
2023/01/16 05:31:13;;;;;;;16.65;9.65;;;;;;;;;;5035151;28;20037;-77
2023/01/16 05:33:39;;;;;;;16.35;9.98;;;;;;;;;;5030509;28;20041;-77
2023/01/16 05:36:05;;;;;;;20.65;10.20;;;;;;;;;;5034197;28;20061;-77
2023/01/16 05:38:31;;;;;;;15.80;10.00;;;;;;;;;;5033641;28;20049;-77
2023/01/16 05:40:57;;;;;;;19.25;9.82;;;;;;;;;;5021186;28;20113;-77
2023/01/16 05:43:23;;;;;;;15.98;10.25;;;;;;;;;;5015308;28;20508;-77
2023/01/16 05:45:49;;;;;;;17.98;10.77;;;;;;;;;;5015131;28;20064;-77
2023/01/16 05:48:15;;;;;;;18.08;9.77;;;;;;;;;;5015401;28;20100;-77
2023/01/16 05:50:41;;;;;;;20.35;10.60;;;;;;;;;;5014662;28;20103;-77
2023/01/16 05:53:08;;;;;;;18.75;10.13;;;;;;;;;;5015050;28;20100;-77
2023/01/16 05:55:39;;;;;;;17.05;9.98;;;;;;;;;;5014944;28;20448;-77
2023/01/16 05:58:06;;;;;;;22.75;10.80;;;;;;;;;;5021288;28;20156;-77
2023/01/16 06:00:32;;;;;;;20.02;10.40;;;;;;;;;;5014726;28;20096;-77
2023/01/16 06:02:58;;;;;;;20.23;11.57;;;;;;;;;;5027814;28;20052;-77
2023/01/16 06:05:24;;;;;;;20.42;11.15;;;;;;;;;;5034721;28;20041;-78
2023/01/16 06:07:55;;;;;;;21.42;10.90;;;;;;;;;;5034115;28;20076;-77
2023/01/16 06:10:21;;;;;;;20.05;11.07;;;;;;;;;;5033428;28;20045;-77
2023/01/16 06:12:47;;;;;;;22.08;11.82;;;;;;;;;;5019522;28;20095;-77
2023/01/16 06:15:13;;;;;;;19.10;11.18;;;;;;;;;;5029425;28;20041;-77
2023/01/16 06:17:39;;;;;;;20.38;11.90;;;;;;;;;;5034000;28;20050;-77
2023/01/16 06:20:05;;;;;;;20.85;11.13;;;;;;;;;;5032871;28;20053;-77
2023/01/16 06:22:31;;;;;;;21.08;11.95;;;;;;;;;;5014617;28;20191;-77
2023/01/16 06:24:57;;;;;;;21.02;11.15;;;;;;;;;;5014114;28;20132;-77
2023/01/16 06:27:23;;;;;;;21.52;12.48;;;;;;;;;;5014955;28;20115;-77
2023/01/16 06:29:49;;;;;;;18.45;12.13;;;;;;;;;;5033946;28;20045;-77
2023/01/16 06:32:19;;;;;;;21.20;11.77;;;;;;;;;;5026753;28;20046;-77
2023/01/16 06:34:45;;;;;;;20.98;11.85;;;;;;;;;;5014614;28;20049;-77
2023/01/16 06:37:32;;;;;;;20.83;11.20;;;;;;;;;;5034065;28;20041;-77
2023/01/16 06:39:59;;;;;;;22.05;11.63;;;;;;;;;;5032477;28;20145;-77
2023/01/16 06:42:26;;;;;;;22.92;12.02;;;;;;;;;;5029052;28;20037;-77
2023/01/16 06:44:52;;;;;;;19.35;11.18;;;;;;;;;;5013770;28;20120;-77
2023/01/16 06:47:18;;;;;;;18.83;11.40;;;;;;;;;;5013324;28;20129;-77
2023/01/16 06:49:44;;;;;;;18.33;11.50;;;;;;;;;;5016463;28;20045;-77
2023/01/16 06:52:10;;;;;;;19.30;10.73;;;;;;;;;;5026826;28;20037;-82
2023/01/16 06:54:36;;;;;;;24.33;11.60;;;;;;;;;;5039405;28;20045;-82
2023/01/16 06:57:02;;;;;;;18.90;11.05;;;;;;;;;;5025563;28;20124;-77
2023/01/16 06:59:28;;;;;;;17.83;10.25;;;;;;;;;;5024134;28;20069;-76
2023/01/16 07:01:54;;;;;;;19.63;11.43;;;;;;;;;;5025609;28;20049;-77
2023/01/16 07:04:20;;;;;;;22.90;10.55;;;;;;;;;;5014389;28;20045;-76
2023/01/16 07:06:49;;;;;;;20.05;10.90;;;;;;;;;;5014186;28;20046;-76
2023/01/16 07:09:15;;;;;;;20.98;11.25;;;;;;;;;;5013691;28;20046;-76
2023/01/16 07:11:41;;;;;;;17.80;10.48;;;;;;;;;;5013693;28;20041;-76
2023/01/16 07:22:34;;;;;;;19.00;10.18;;;;;;;;;;5033446;28;20579;-77
2023/01/16 07:25:01;;;;;;;18.35;10.73;;;;;;;;;;5033229;28;20404;-77
2023/01/16 07:27:28;;;;;;;21.15;10.82;;;;;;;;;;5021459;28;20042;-77
2023/01/16 07:29:54;;;;;;;20.13;9.90;;;;;;;;;;5013924;28;20089;-77
2023/01/16 07:32:20;;;;;;;19.45;10.02;;;;;;;;;;5023023;28;20469;-77
2023/01/16 07:34:46;;;;;;;15.25;9.70;;;;;;;;;;5019668;28;20034;-77
2023/01/16 07:37:12;;;;;;;15.60;9.50;;;;;;;;;;5016077;28;20046;-77
2023/01/16 07:39:38;;;;;;;17.20;9.85;;;;;;;;;;5017469;28;20050;-77
2023/01/16 07:42:05;;;;;;;17.63;8.98;;;;;;;;;;5023492;28;20151;-77
2023/01/16 07:44:31;;;;;;;16.02;9.20;;;;;;;;;;5033918;28;20088;-77
2023/01/16 07:46:57;;;;;;;17.73;8.73;;;;;;;;;;5022510;28;20038;-77
2023/01/16 07:49:23;;;;;;;16.50;8.27;;;;;;;;;;5036550;28;20042;-77
2023/01/16 07:51:49;;;;;;;15.63;8.40;;;;;;;;;;5037243;28;20124;-78
2023/01/16 07:54:15;;;;;;;16.95;7.50;;;;;;;;;;5029509;28;20441;-77
2023/01/16 07:56:41;;;;;;;15.15;7.95;;;;;;;;;;5016820;28;20561;-77
2023/01/16 07:59:08;;;;;;;15.95;7.88;;;;;;;;;;5017294;28;20041;-77
2023/01/16 08:01:34;;;;;;;13.70;8.27;;;;;;;;;;5025631;28;20075;-77
2023/01/16 08:04:00;;;;;;;16.40;8.43;;;;;;;;;;5017723;28;20076;-77
2023/01/16 08:06:26;;;;;;;17.23;9.07;;;;;;;;;;5017156;28;20049;-77
2023/01/16 08:08:52;;;;;;;12.68;7.45;;;;;;;;;;5021716;28;20037;-77
2023/01/16 08:11:38;;;;;;;14.55;8.68;;;;;;;;;;5035304;28;20083;-77
2023/01/16 08:14:04;;;;;;;16.65;8.40;;;;;;;;;;5017807;28;20121;-77
2023/01/16 08:16:30;;;;;;;18.15;9.95;;;;;;;;;;5017369;28;20061;-78
2023/01/16 08:18:56;;;;;;;22.33;10.68;;;;;;;;;;5023562;28;20512;-78
2023/01/16 08:21:22;;;;;;;21.48;10.30;;;;;;;;;;5036995;28;20488;-78
2023/01/16 08:23:48;;;;;;;16.05;8.30;;;;;;;;;;5022114;28;20044;-78
2023/01/16 08:26:15;;;;;;;14.23;8.90;;;;;;;;;;5017186;28;20050;-78
2023/01/16 08:28:41;;;;;;;12.43;7.47;;;;;;;;;;5015206;28;20076;-78
2023/01/16 08:31:08;;;;;;;12.50;7.68;;;;;;;;;;5020631;28;20048;-78
2023/01/16 08:33:38;;;;;;;14.20;7.93;;;;;;;;;;5015410;28;20052;-78
2023/01/16 08:36:05;;;;;;;13.00;7.55;;;;;;;;;;5016104;28;20663;-78
2023/01/16 08:38:31;;;;;;;14.15;7.75;;;;;;;;;;5022607;28;20046;-78
2023/01/16 08:40:57;;;;;;;17.08;7.13;;;;;;;;;;5036113;28;20135;-78
2023/01/16 08:51:50;;;;;;;13.18;7.05;;;;;;;;;;5016651;28;20075;-77
2023/01/16 08:54:16;;;;;;;15.27;7.07;;;;;;;;;;5029631;28;20041;-78
2023/01/16 08:56:42;;;;;;;10.23;6.65;;;;;;;;;;5035358;28;20411;-78
2023/01/16 08:59:11;;;;;;;15.95;8.38;;;;;;;;;;5033909;28;20053;-77
2023/01/16 09:01:41;;;;;;;11.95;7.43;;;;;;;;;;5032055;28;20056;-76
2023/01/16 09:04:08;;;;;;;15.10;7.65;;;;;;;;;;5015151;28;20116;-77
2023/01/16 09:06:35;;;;;;;12.45;7.00;;;;;;;;;;5018066;28;20125;-77
2023/01/16 09:09:04;;;;;;;11.63;7.38;;;;;;;;;;5014787;28;20058;-80
2023/01/16 09:14:15;;;;;;;15.27;7.28;;;;;;;;;;5025645;28;20489;-77
2023/01/16 09:16:41;;;;;;;16.35;8.15;;;;;;;;;;5021727;28;20091;-77
2023/01/16 09:19:07;;;;;;;11.02;7.22;;;;;;;;;;5017104;28;20164;-77
2023/01/16 09:21:33;;;;;;;11.77;7.03;;;;;;;;;;5026356;28;20481;-77
2023/01/16 09:23:59;;;;;;;11.93;6.53;;;;;;;;;;5034495;28;20056;-77
2023/01/16 09:26:25;;;;;;;15.40;7.15;;;;;;;;;;5035390;28;20049;-77
2023/01/16 09:28:51;;;;;;;14.50;6.63;;;;;;;;;;5022387;28;20042;-77
2023/01/16 09:31:18;;;;;;;14.98;6.25;;;;;;;;;;5032052;28;20144;-77
2023/01/16 09:33:47;;;;;;;11.70;6.20;;;;;;;;;;5017160;28;20053;-77
2023/01/16 09:36:13;;;;;;;15.07;6.82;;;;;;;;;;5015910;28;20054;-77
2023/01/16 09:38:39;;;;;;;12.00;7.10;;;;;;;;;;5031501;28;20049;-77
2023/01/16 09:41:06;;;;;;;11.80;6.97;;;;;;;;;;5032138;28;20044;-77
2023/01/16 09:43:39;;;;;;;11.27;6.78;;;;;;;;;;5034793;28;20049;-77
2023/01/16 09:46:05;;;;;;;10.88;6.25;;;;;;;;;;5034776;28;20049;-77
2023/01/16 09:48:32;;;;;;;12.50;6.45;;;;;;;;;;5027088;28;20095;-77
2023/01/16 09:51:02;;;;;;;9.45;5.72;;;;;;;;;;5015137;28;20045;-77
2023/01/16 09:59:20;;;;;;;10.80;6.55;;;;;;;;;;5033420;28;20411;-76
2023/01/16 10:01:48;;;;;;;11.63;6.05;;;;;;;;;;5040033;28;20037;-77
2023/01/16 10:04:19;;;;;;;9.60;6.63;;;;;;;;;;5035464;28;20146;-77
2023/01/16 10:07:04;;;;;;;13.65;5.82;;;;;;;;;;5032291;28;20049;-77
2023/01/16 10:09:48;;;;;;;9.45;6.20;;;;;;;;;;5033224;28;20045;-77
2023/01/16 10:12:14;;;;;;;8.55;6.10;;;;;;;;;;5034519;28;20128;-76
2023/01/16 10:14:51;;;;;;;10.40;5.97;;;;;;;;;;5023393;28;20188;-76
2023/01/16 10:17:35;;;;;;;9.43;6.20;;;;;;;;;;5014348;28;20057;-76
2023/01/16 10:20:25;;;;;;;10.02;6.60;;;;;;;;;;5014747;28;20073;-77
2023/01/16 10:22:54;;;;;;;8.93;5.75;;;;;;;;;;5017061;28;20115;-77
2023/01/16 10:25:20;;;;;;;11.88;6.25;;;;;;;;;;5034448;28;20049;-77
2023/01/16 10:28:09;;;;;;;10.05;6.18;;;;;;;;;;5033694;28;20045;-83
2023/01/16 10:30:44;;;;;;;11.60;6.05;;;;;;;;;;5021672;28;20041;-79
2023/01/16 10:33:10;;;;;;;10.15;5.88;;;;;;;;;;5035422;28;20045;-76
2023/01/16 10:35:41;;;;;;;11.77;5.93;;;;;;;;;;5034363;28;20049;-76
2023/01/16 10:38:13;;;;;;;9.38;5.05;;;;;;;;;;5034761;28;20123;-78
2023/01/16 10:40:41;;;;;;;11.90;6.20;;;;;;;;;;5035676;28;20048;-76
2023/01/16 10:49:25;;;;;;;11.80;6.85;;;;;;;;;;5019359;28;20041;-75
2023/01/16 10:51:34;;;;;;;10.65;5.70;;;;;;;;;;5027301;28;20053;-76
2023/01/16 10:54:02;;;;;;;8.35;5.13;;;;;;;;;;5015521;28;20041;-78
2023/01/16 10:56:29;;;;;;;10.35;5.78;;;;;;;;;;5025873;28;20069;-75
2023/01/16 10:58:55;;;;;;;8.55;5.43;;;;;;;;;;5019459;28;20091;-76
2023/01/16 11:01:23;;;;;;;11.38;6.07;;;;;;;;;;5035091;28;20056;-82
2023/01/16 11:04:09;;;;;;;8.90;5.93;;;;;;;;;;5039116;28;20539;-81
2023/01/16 11:06:37;;;;;;;10.77;6.15;;;;;;;;;;5029761;28;20373;-75
2023/01/16 11:09:17;;;;;;;8.00;5.22;;;;;;;;;;5034317;28;20111;-75
2023/01/16 11:20:15;;;;;;;5.88;4.35;;;;;;;;;;5010776;28;20042;-76
2023/01/16 11:22:41;;;;;;;5.90;3.83;;;;;;;;;;5010436;28;20050;-76
2023/01/16 11:25:14;;;;;;;4.53;3.67;;;;;;;;;;5008786;28;20057;-76
2023/01/16 11:27:40;;;;;;;6.13;3.58;;;;;;;;;;5006244;28;20056;-76
2023/01/16 11:30:10;;;;;;;4.68;3.38;;;;;;;;;;4990902;28;20505;-75
2023/01/16 11:32:44;;;;;;;5.10;3.03;;;;;;;;;;4994749;28;20130;-75
2023/01/16 11:35:14;;;;;;;5.43;2.97;;;;;;;;;;5010856;28;20463;-75
2023/01/16 11:37:43;;;;;;;3.90;2.72;;;;;;;;;;5011198;28;20121;-76
2023/01/16 11:40:20;;;;;;;3.28;2.60;;;;;;;;;;5011622;28;20070;-75
2023/01/16 11:46:03;;;;;;;3.10;2.40;;;;;;;;;;5002048;28;20042;-75
2023/01/16 11:48:49;;;;;;;7.45;2.70;;;;;;;;;;5011219;28;20045;-76
2023/01/16 11:51:21;;;;;;;3.05;2.55;;;;;;;;;;4995112;28;20614;-75
2023/01/16 11:53:48;;;;;;;4.07;3.03;;;;;;;;;;5011071;28;20096;-75
2023/01/16 11:56:15;;;;;;;3.10;2.20;;;;;;;;;;5013510;28;20038;-76
2023/01/16 11:59:06;;;;;;;3.55;2.45;;;;;;;;;;5031298;28;20049;-77
2023/01/16 12:04:36;;;;;;;2.83;2.50;;;;;;;;;;5021142;28;20049;-75
2023/01/16 12:07:12;;;;;;;2.35;2.15;;;;;;;;;;5022904;28;20049;-77
2023/01/16 12:09:41;;;;;;;3.00;2.40;;;;;;;;;;5022529;28;20052;-77
2023/01/16 12:15:13;;;;;;;3.97;2.42;;;;;;;;;;5036850;28;20050;-76
2023/01/16 12:17:51;;;;;;;2.58;2.38;;;;;;;;;;5033410;28;20100;-75
2023/01/16 12:20:34;;;;;;;3.20;2.42;;;;;;;;;;5032768;28;20045;-76
2023/01/16 12:23:03;;;;;;;3.40;2.55;;;;;;;;;;5033131;28;20099;-81
2023/01/16 12:25:58;;;;;;;2.95;2.15;;;;;;;;;;5030489;28;20041;-76
2023/01/16 12:28:33;;;;;;;2.20;2.00;;;;;;;;;;5005687;28;20045;-76
2023/01/16 12:31:21;;;;;;;3.80;2.30;;;;;;;;;;5035683;28;20112;-79
2023/01/16 12:33:58;;;;;;;2.67;2.28;;;;;;;;;;5027717;28;20050;-76
2023/01/16 12:36:27;;;;;;;2.60;2.10;;;;;;;;;;5028850;28;20046;-76
2023/01/16 12:39:12;;;;;;;1.75;1.63;;;;;;;;;;5035084;28;20057;-76
2023/01/16 12:44:38;;;;;;;2.08;1.88;;;;;;;;;;5033645;28;20496;-76
2023/01/16 12:47:13;;;;;;;4.65;2.40;;;;;;;;;;5032835;28;21578;-76
2023/01/16 12:49:58;;;;;;;3.15;1.98;;;;;;;;;;5018888;28;20877;-76
2023/01/16 12:52:24;;;;;;;2.72;2.38;;;;;;;;;;5046887;28;20073;-76
2023/01/16 12:54:53;;;;;;;2.50;2.20;;;;;;;;;;5029995;28;20095;-76
2023/01/16 12:57:28;;;;;;;2.35;2.15;;;;;;;;;;5030811;28;20049;-76
2023/01/16 12:59:56;;;;;;;2.50;2.20;;;;;;;;;;5035817;28;20049;-76
2023/01/16 13:02:43;;;;;;;2.38;2.00;;;;;;;;;;5037407;28;20820;-76
2023/01/16 13:05:18;;;;;;;2.97;2.40;;;;;;;;;;5020130;28;20117;-75
2023/01/16 13:08:06;;;;;;;3.85;2.70;;;;;;;;;;5018610;28;20053;-75
2023/01/16 13:13:25;;;;;;;4.80;2.95;;;;;;;;;;5026397;28;20119;-75
2023/01/16 13:16:03;;;;;;;3.63;2.60;;;;;;;;;;5023896;28;20045;-75
2023/01/16 13:18:29;;;;;;;3.53;2.40;;;;;;;;;;5032969;28;20076;-75
2023/01/16 13:21:00;;;;;;;2.80;2.50;;;;;;;;;;5034510;28;20048;-76
2023/01/16 13:23:32;;;;;;;2.70;2.38;;;;;;;;;;5035058;28;20041;-75
2023/01/16 13:26:03;;;;;;;4.30;2.80;;;;;;;;;;5025031;28;20057;-75
2023/01/16 13:28:32;;;;;;;3.67;2.67;;;;;;;;;;5030143;28;20056;-76
2023/01/16 13:31:01;;;;;;;3.95;2.97;;;;;;;;;;5035114;28;20072;-76
2023/01/16 13:33:39;;;;;;;4.20;2.90;;;;;;;;;;5032684;28;20470;-75
2023/01/16 13:36:06;;;;;;;6.70;3.33;;;;;;;;;;5026247;28;20045;-75
2023/01/16 13:38:55;;;;;;;4.00;3.25;;;;;;;;;;5032694;28;20057;-76
2023/01/16 13:41:24;;;;;;;4.22;3.10;;;;;;;;;;5026986;28;20050;-75
2023/01/16 13:46:51;;;;;;;4.13;3.33;;;;;;;;;;5024216;28;20073;-76
2023/01/16 13:49:20;;;;;;;4.45;3.08;;;;;;;;;;5033657;28;20041;-76
2023/01/16 13:51:47;;;;;;;4.95;3.60;;;;;;;;;;5034984;28;20045;-76
2023/01/16 13:54:15;;;;;;;5.10;3.30;;;;;;;;;;5019489;28;20050;-75
2023/01/16 13:56:41;;;;;;;5.10;3.58;;;;;;;;;;5015964;28;20096;-77
2023/01/16 13:59:11;;;;;;;4.63;3.42;;;;;;;;;;5032124;28;20065;-77
2023/01/16 14:01:40;;;;;;;5.30;3.63;;;;;;;;;;5035174;28;20120;-76
2023/01/16 14:04:15;;;;;;;4.28;3.63;;;;;;;;;;5017046;28;20068;-76
2023/01/16 14:06:48;;;;;;;4.80;3.50;;;;;;;;;;5014894;28;20053;-76
2023/01/16 14:09:17;;;;;;;4.88;3.80;;;;;;;;;;5041231;28;20516;-81
2023/01/16 14:12:00;;;;;;;4.55;3.95;;;;;;;;;;5027390;28;20060;-75
2023/01/16 14:17:11;;;;;;;5.00;3.90;;;;;;;;;;5031678;28;20053;-75
2023/01/16 14:19:39;;;;;;;4.80;3.72;;;;;;;;;;5024481;28;20493;-75
2023/01/16 14:24:54;;;;;;;5.18;4.13;;;;;;;;;;5021945;28;20072;-76
2023/01/16 14:27:22;;;;;;;4.82;3.92;;;;;;;;;;5026970;28;20084;-75
2023/01/16 14:29:49;;;;;;;6.32;4.63;;;;;;;;;;5015173;28;20057;-76
2023/01/16 14:32:27;;;;;;;6.38;4.50;;;;;;;;;;5024060;28;20098;-75
2023/01/16 14:35:00;;;;;;;4.80;4.30;;;;;;;;;;5022111;28;20491;-75
2023/01/16 14:37:28;;;;;;;5.85;4.68;;;;;;;;;;5021707;28;20037;-75
2023/01/16 14:39:59;;;;;;;6.93;4.13;;;;;;;;;;5031025;28;20052;-76
2023/01/16 14:56:48;;;;;;;7.05;6.35;;;;;;;;;;5026926;28;20060;-75
2023/01/16 14:59:16;;;;;;;5.53;4.80;;;;;;;;;;5021545;28;20052;-75
2023/01/16 15:04:50;;;;;;;8.15;7.32;;;;;;;;;;5022161;28;20076;-75
2023/01/16 15:07:17;;;;;;;7.93;5.93;;;;;;;;;;5022251;28;20042;-75
2023/01/16 15:09:44;;;;;;;8.15;6.38;;;;;;;;;;5007262;28;20137;-76
2023/01/16 15:12:42;;;;;;;9.52;7.28;;;;;;;;;;5032973;28;20041;-75
2023/01/16 15:15:27;;;;;;;10.25;7.68;;;;;;;;;;5000318;28;20132;-74
2023/01/16 15:23:25;;;;;;;15.15;9.43;;;;;;;;;;5044136;28;20046;-75
2023/01/16 15:26:06;;;;;;;22.05;13.98;;;;;;;;;;5026995;28;20045;-75
2023/01/16 15:28:35;;;;;;;15.48;10.30;;;;;;;;;;5019864;28;20045;-74
2023/01/16 15:31:05;;;;;;;9.45;6.68;;;;;;;;;;5034933;28;20042;-74
2023/01/16 15:36:30;;;;;;;18.45;9.60;;;;;;;;;;5021166;28;20122;-75
2023/01/16 15:38:58;;;;;;;17.60;9.82;;;;;;;;;;5029940;28;20065;-75
2023/01/16 15:47:02;;;;;;;11.02;8.77;;;;;;;;;;5029235;28;20042;-75
2023/01/16 15:49:28;;;;;;;10.50;7.85;;;;;;;;;;5030025;28;20048;-75
2023/01/16 15:51:55;;;;;;;11.05;7.93;;;;;;;;;;5025678;28;20041;-76
2023/01/16 15:54:22;;;;;;;9.82;7.32;;;;;;;;;;5026103;28;20041;-75
2023/01/16 15:56:48;;;;;;;10.55;7.80;;;;;;;;;;5031978;28;20079;-75
2023/01/16 15:59:25;;;;;;;21.67;11.70;;;;;;;;;;5035803;28;20049;-75
2023/01/16 16:01:52;;;;;;;27.35;14.90;;;;;;;;;;5037252;28;20046;-74
2023/01/16 16:04:19;;;;;;;34.10;18.33;;;;;;;;;;5023762;28;20420;-74
2023/01/16 16:06:45;;;;;;;20.48;12.48;;;;;;;;;;5024630;28;20053;-74
2023/01/16 16:09:22;;;;;;;20.80;13.43;;;;;;;;;;5022697;28;20119;-74
2023/01/16 16:11:55;;;;;;;;;;;;;;;;;;5036692;28;20116;-74
2023/01/16 16:20:30;;;;;;;8.82;6.55;;;;;;;;;;5038253;28;20037;-74
2023/01/16 16:23:15;;;;;;;8.02;6.03;;;;;;;;;;5036812;28;20049;-75
2023/01/16 16:25:46;;;;;;;9.35;6.75;;;;;;;;;;5031663;28;20049;-74
2023/01/16 16:28:18;;;;;;;11.60;7.20;;;;;;;;;;5031151;28;20060;-75
2023/01/16 16:30:45;;;;;;;8.95;7.03;;;;;;;;;;5034985;28;20049;-76
2023/01/16 16:33:15;;;;;;;9.70;7.05;;;;;;;;;;5018525;28;20049;-75
2023/01/16 16:35:47;;;;;;;8.75;6.60;;;;;;;;;;5035191;28;20116;-75